Terminal Aerodrome Forecast
Issued by NWS Jackson, MS

Home | Current Version | Previous Version | Text Only | Print | Product List | Glossary On
Versions: 1 2 3 4 5 6 7 8 9 10 11 12
238
FTUS44 KJAN 282336
TAFJAN
TAF
KJAN 282336Z 2900/2924 18004KT P6SM FEW060
     FM291000 15007KT 5SM BR BKN007 OVC015
     FM291500 17010KT P6SM BKN025
     FM291700 16012G18KT P6SM SCT050=

USA.gov is the U.S. government's official web portal to all federal, state and local government web resources and services.